createdAt,value
2023-03-05T00:00:53.154Z,2.10
2023-03-05T00:01:53.082Z,1.70
2023-03-05T00:02:53.140Z,2.20
2023-03-05T00:03:53.179Z,2.60
2023-03-05T00:04:53.050Z,2.60
2023-03-05T00:05:53.076Z,2.00
2023-03-05T00:06:53.030Z,2.40
2023-03-05T00:07:53.022Z,2.20
2023-03-05T00:08:53.046Z,2.10
2023-03-05T00:09:53.012Z,1.90
2023-03-05T00:10:53.011Z,2.30
2023-03-05T00:11:53.016Z,1.90
2023-03-05T00:12:52.974Z,1.80
2023-03-05T00:13:52.980Z,1.60
2023-03-05T00:14:52.984Z,1.80
2023-03-05T00:15:53.037Z,2.10
2023-03-05T00:16:52.909Z,1.80
2023-03-05T00:17:52.908Z,2.40
2023-03-05T00:18:52.913Z,1.90
2023-03-05T00:19:52.915Z,2.40
2023-03-05T00:20:52.890Z,1.80
2023-03-05T00:21:52.869Z,2.30
2023-03-05T00:22:52.838Z,2.10
2023-03-05T00:23:52.843Z,2.60
2023-03-05T00:24:52.841Z,2.40
2023-03-05T00:25:52.875Z,2.80
2023-03-05T00:26:52.803Z,2.30
2023-03-05T00:27:52.822Z,2.60
2023-03-05T00:28:52.784Z,2.30
2023-03-05T00:29:52.790Z,2.30
2023-03-05T00:30:52.800Z,2.70
2023-03-05T00:31:52.753Z,2.50
2023-03-05T00:32:52.725Z,2.10
2023-03-05T00:33:52.775Z,2.50
2023-03-05T00:34:52.734Z,2.30
2023-03-05T00:35:52.744Z,2.40
2023-03-05T00:36:52.718Z,2.80
2023-03-05T00:37:52.688Z,2.30
2023-03-05T00:38:52.663Z,2.70
2023-03-05T00:39:52.680Z,2.30
2023-03-05T00:40:52.658Z,2.50
2023-03-05T00:41:52.668Z,2.60
2023-03-05T00:42:52.655Z,2.20
2023-03-05T00:43:52.615Z,2.20
2023-03-05T00:44:52.586Z,2.10
2023-03-05T00:45:52.591Z,2.30
2023-03-05T00:46:52.624Z,3.10
2023-03-05T00:47:52.547Z,2.20
2023-03-05T00:48:52.614Z,2.20
2023-03-05T00:49:52.563Z,2.10
2023-03-05T00:50:52.530Z,3.40
2023-03-05T00:51:52.549Z,3.10
2023-03-05T00:52:52.518Z,2.90
2023-03-05T00:53:52.534Z,2.00
2023-03-05T00:54:52.485Z,2.10
2023-03-05T00:55:52.481Z,2.00
2023-03-05T00:56:52.505Z,1.90
2023-03-05T00:57:52.462Z,2.00
2023-03-05T00:58:52.438Z,1.70
2023-03-05T00:59:52.435Z,1.40
2023-03-05T01:00:52.428Z,1.60
2023-03-05T01:01:52.567Z,1.70
2023-03-05T01:02:52.405Z,1.50
2023-03-05T01:03:52.366Z,1.50
2023-03-05T01:04:52.383Z,1.50
2023-03-05T01:05:52.361Z,1.40
2023-03-05T01:06:52.360Z,1.50
2023-03-05T01:07:52.329Z,1.60
2023-03-05T01:08:52.312Z,1.50
2023-03-05T01:09:52.301Z,1.30
2023-03-05T01:10:52.319Z,1.50
2023-03-05T01:11:52.309Z,1.40
2023-03-05T01:12:52.256Z,2.00
2023-03-05T01:13:52.238Z,1.80
2023-03-05T01:14:52.222Z,1.50
2023-03-05T01:15:52.269Z,1.40
2023-03-05T01:16:52.253Z,1.50
2023-03-05T01:17:52.204Z,1.10
2023-03-05T01:18:52.179Z,1.20
2023-03-05T01:19:52.184Z,1.90
2023-03-05T01:20:52.149Z,1.80
2023-03-05T01:21:52.199Z,1.40
2023-03-05T01:22:52.119Z,1.60
2023-03-05T01:23:52.185Z,1.70
2023-03-05T01:24:52.127Z,1.50
2023-03-05T01:25:52.098Z,1.20
2023-03-05T01:26:52.097Z,2.10
2023-03-05T01:27:52.103Z,1.30
2023-03-05T01:28:52.129Z,1.40
2023-03-05T01:29:52.064Z,1.40
2023-03-05T01:30:52.066Z,1.40
2023-03-05T01:31:52.105Z,1.40
2023-03-05T01:32:52.027Z,1.40
2023-03-05T01:33:52.038Z,2.00
2023-03-05T01:34:52.020Z,1.90
2023-03-05T01:35:52.033Z,1.70
2023-03-05T01:36:51.991Z,1.60
2023-03-05T01:37:51.966Z,2.20
2023-03-05T01:38:52.004Z,1.30
2023-03-05T01:39:51.951Z,1.50
2023-03-05T01:40:51.929Z,1.60
2023-03-05T01:41:51.944Z,1.90
2023-03-05T01:42:51.914Z,1.50
2023-03-05T01:43:51.940Z,1.40
2023-03-05T01:44:51.873Z,1.30
2023-03-05T01:45:51.980Z,1.40
2023-03-05T01:46:51.884Z,1.70
2023-03-05T01:47:51.845Z,1.70
2023-03-05T01:48:51.829Z,1.50
2023-03-05T01:49:51.850Z,1.50
2023-03-05T01:50:51.829Z,1.40
2023-03-05T01:51:51.831Z,1.50
2023-03-05T01:52:51.975Z,1.70
2023-03-05T01:53:51.802Z,1.80
2023-03-05T01:54:51.767Z,1.50
2023-03-05T01:55:51.749Z,1.70
2023-03-05T01:56:51.749Z,1.20
2023-03-05T01:57:51.754Z,1.40
2023-03-05T01:58:51.749Z,1.40
2023-03-05T01:59:51.786Z,1.60
2023-03-05T02:00:51.719Z,1.10
2023-03-05T02:01:51.709Z,1.10
2023-03-05T02:02:51.753Z,1.70
2023-03-05T02:03:51.792Z,2.00
2023-03-05T02:04:51.738Z,1.60
2023-03-05T02:05:51.695Z,2.00
2023-03-05T02:06:51.623Z,4.20
2023-03-05T02:07:51.633Z,2.30
2023-03-05T02:08:51.624Z,2.20
2023-03-05T02:09:51.611Z,3.20
2023-03-05T02:10:51.651Z,4.60
2023-03-05T02:11:51.597Z,3.20
2023-03-05T02:12:51.575Z,3.30
2023-03-05T02:13:51.545Z,3.00
2023-03-05T02:14:51.547Z,3.70
2023-03-05T02:15:51.550Z,2.50
2023-03-05T02:16:51.592Z,2.20
2023-03-05T02:17:51.511Z,2.90
2023-03-05T02:18:51.490Z,2.20
2023-03-05T02:19:51.497Z,1.40
2023-03-05T02:20:51.491Z,1.30
2023-03-05T02:21:51.463Z,1.40
2023-03-05T02:22:51.502Z,1.30
2023-03-05T02:23:51.430Z,1.50
2023-03-05T02:24:51.433Z,1.40
2023-03-05T02:25:51.420Z,1.20
2023-03-05T02:26:51.413Z,1.00
2023-03-05T02:27:51.424Z,1.10
2023-03-05T02:28:51.442Z,0.90
2023-03-05T02:29:51.409Z,1.60
2023-03-05T02:30:51.360Z,1.20
2023-03-05T02:31:51.384Z,1.70
2023-03-05T02:32:51.363Z,1.80
2023-03-05T02:33:51.323Z,1.80
2023-03-05T02:34:51.313Z,1.30
2023-03-05T02:35:51.354Z,0.90
2023-03-05T02:36:51.284Z,1.40
2023-03-05T02:37:51.347Z,1.10
2023-03-05T02:38:51.261Z,1.40
2023-03-05T02:39:51.262Z,0.80
2023-03-05T02:40:51.244Z,0.70
2023-03-05T02:41:51.236Z,1.10
2023-03-05T02:42:51.258Z,2.20
2023-03-05T02:43:51.240Z,1.50
2023-03-05T02:44:51.195Z,1.10
2023-03-05T02:45:51.256Z,1.90
2023-03-05T02:46:51.178Z,1.60
2023-03-05T02:47:51.173Z,1.00
2023-03-05T02:48:51.224Z,0.90
2023-03-05T02:49:51.178Z,1.20
2023-03-05T02:50:51.159Z,1.20
2023-03-05T02:51:51.106Z,0.80
2023-03-05T02:52:51.114Z,0.90
2023-03-05T02:53:51.102Z,1.50
2023-03-05T02:54:51.078Z,1.20
2023-03-05T02:55:51.095Z,1.10
2023-03-05T02:56:51.058Z,1.40
2023-03-05T02:57:51.069Z,1.40
2023-03-05T02:58:51.086Z,1.50
2023-03-05T02:59:51.138Z,1.50
2023-03-05T03:00:51.080Z,1.90
2023-03-05T03:01:51.041Z,2.10
2023-03-05T03:02:51.101Z,1.50
2023-03-05T03:03:51.017Z,1.50
2023-03-05T03:04:50.972Z,1.40
2023-03-05T03:05:50.962Z,1.20
2023-03-05T03:06:50.941Z,1.50
2023-03-05T03:07:50.937Z,1.20
2023-03-05T03:08:50.981Z,1.10
2023-03-05T03:09:50.972Z,1.50
2023-03-05T03:10:50.899Z,1.20
2023-03-05T03:11:50.878Z,1.20
2023-03-05T03:12:50.883Z,1.40
2023-03-05T03:13:50.872Z,1.60
2023-03-05T03:14:50.859Z,1.20
2023-03-05T03:15:50.869Z,1.50
2023-03-05T03:16:50.857Z,1.40
2023-03-05T03:17:50.809Z,1.40
2023-03-05T03:18:50.820Z,2.00
2023-03-05T03:19:50.809Z,1.40
2023-03-05T03:20:50.812Z,1.30
2023-03-05T03:21:50.785Z,1.40
2023-03-05T03:22:50.757Z,1.20
2023-03-05T03:23:50.768Z,1.70
2023-03-05T03:24:50.777Z,1.60
2023-03-05T03:25:50.769Z,1.50
2023-03-05T03:26:50.728Z,1.20
2023-03-05T03:27:50.739Z,1.00
2023-03-05T03:28:50.730Z,1.10
2023-03-05T03:29:50.688Z,1.70
2023-03-05T03:30:50.721Z,1.30
2023-03-05T03:31:50.673Z,1.30
2023-03-05T03:32:50.656Z,1.60
2023-03-05T03:33:50.668Z,1.30
2023-03-05T03:34:50.650Z,1.50
2023-03-05T03:35:50.672Z,1.60
2023-03-05T03:36:50.634Z,1.40
2023-03-05T03:37:50.590Z,2.00
2023-03-05T03:38:50.603Z,1.30
2023-03-05T03:39:50.569Z,1.60
2023-03-05T03:40:50.588Z,1.90
2023-03-05T03:41:50.560Z,1.70
2023-03-05T03:42:50.548Z,1.40
2023-03-05T03:43:50.570Z,1.40
2023-03-05T03:44:50.529Z,1.50
2023-03-05T03:45:50.570Z,1.20
2023-03-05T03:46:50.531Z,1.40
2023-03-05T03:47:50.517Z,1.40
2023-03-05T03:48:50.477Z,1.20
2023-03-05T03:49:50.471Z,1.60
2023-03-05T03:50:50.475Z,1.60
2023-03-05T03:51:50.458Z,2.10
2023-03-05T03:52:50.486Z,1.60
2023-03-05T03:53:50.424Z,1.40
2023-03-05T03:54:50.428Z,1.10
2023-03-05T03:55:50.407Z,1.90
2023-03-05T03:56:50.404Z,1.30
2023-03-05T03:57:50.382Z,1.30
2023-03-05T03:58:50.357Z,1.40
2023-03-05T03:59:50.522Z,1.50
2023-03-05T04:00:50.365Z,1.50
2023-03-05T04:01:50.330Z,1.50
2023-03-05T04:02:50.408Z,1.60
2023-03-05T04:03:50.341Z,1.70
2023-03-05T04:04:50.337Z,1.30
2023-03-05T04:05:50.313Z,1.20
2023-03-05T04:06:50.257Z,1.20
2023-03-05T04:07:50.263Z,1.60
2023-03-05T04:08:50.237Z,1.60
2023-03-05T04:09:50.294Z,1.50
2023-03-05T04:10:50.238Z,1.40
2023-03-05T04:11:50.202Z,1.20
2023-03-05T04:12:50.198Z,1.30
2023-03-05T04:13:50.186Z,1.30
2023-03-05T04:14:50.251Z,1.20
2023-03-05T04:15:50.264Z,1.70
2023-03-05T04:16:50.147Z,1.30
2023-03-05T04:17:50.140Z,1.10
2023-03-05T04:18:50.152Z,1.50
2023-03-05T04:19:50.108Z,1.30
2023-03-05T04:20:50.150Z,1.50
2023-03-05T04:21:50.091Z,1.40
2023-03-05T04:22:50.122Z,1.10
2023-03-05T04:23:50.092Z,1.10
2023-03-05T04:24:50.103Z,1.20
2023-03-05T04:25:50.062Z,1.30
2023-03-05T04:26:50.037Z,1.20
2023-03-05T04:27:50.054Z,1.40
2023-03-05T04:28:50.024Z,1.60
2023-03-05T04:29:49.988Z,1.10
2023-03-05T04:30:50.060Z,1.10
2023-03-05T04:31:49.979Z,2.00
2023-03-05T04:32:49.973Z,1.50
2023-03-05T04:33:49.947Z,1.20
2023-03-05T04:34:49.966Z,1.20
2023-03-05T04:35:49.986Z,1.30
2023-03-05T04:36:49.924Z,1.00
2023-03-05T04:37:49.911Z,1.30
2023-03-05T04:38:49.920Z,1.30
2023-03-05T04:39:49.908Z,1.30
2023-03-05T04:40:49.916Z,1.40
2023-03-05T04:41:49.903Z,1.20
2023-03-05T04:42:49.868Z,1.40
2023-03-05T04:43:49.826Z,1.30
2023-03-05T04:44:49.835Z,1.30
2023-03-05T04:45:49.847Z,1.10
2023-03-05T04:46:49.904Z,1.10
2023-03-05T04:47:49.824Z,1.10
2023-03-05T04:48:49.765Z,1.30
2023-03-05T04:49:49.768Z,1.10
2023-03-05T04:50:49.781Z,1.20
2023-03-05T04:51:49.765Z,1.10
2023-03-05T04:52:49.763Z,1.30
2023-03-05T04:53:49.749Z,1.20
2023-03-05T04:54:49.709Z,0.90
2023-03-05T04:55:49.700Z,1.00
2023-03-05T04:56:49.686Z,1.10
2023-03-05T04:57:49.699Z,1.40
2023-03-05T04:58:49.669Z,1.10
2023-03-05T04:59:49.661Z,1.10
2023-03-05T05:00:49.637Z,1.30
2023-03-05T05:01:49.680Z,1.00
2023-03-05T05:02:49.677Z,1.00
2023-03-05T05:03:49.596Z,1.20
2023-03-05T05:04:49.602Z,1.00
2023-03-05T05:05:49.585Z,1.10
2023-03-05T05:06:49.572Z,1.20
2023-03-05T05:07:49.610Z,1.10
2023-03-05T05:08:49.573Z,0.90
2023-03-05T05:09:49.523Z,1.20
2023-03-05T05:10:49.588Z,1.20
2023-03-05T05:11:49.545Z,1.00
2023-03-05T05:12:49.491Z,1.20
2023-03-05T05:13:49.524Z,1.40
2023-03-05T05:14:49.469Z,1.30
2023-03-05T05:15:49.547Z,1.40
2023-03-05T05:16:49.492Z,1.00
2023-03-05T05:17:49.462Z,1.40
2023-03-05T05:18:49.434Z,1.60
2023-03-05T05:19:49.436Z,1.10
2023-03-05T05:20:49.449Z,1.10
2023-03-05T05:21:49.405Z,1.30
2023-03-05T05:22:49.405Z,1.00
2023-03-05T05:23:49.386Z,1.00
2023-03-05T05:24:49.396Z,1.00
2023-03-05T05:25:49.381Z,1.20
2023-03-05T05:26:49.347Z,1.20
2023-03-05T05:27:49.338Z,1.10
2023-03-05T05:28:49.327Z,1.20
2023-03-05T05:29:49.316Z,1.20
2023-03-05T05:30:49.283Z,1.30
2023-03-05T05:31:49.343Z,1.30
2023-03-05T05:32:49.300Z,1.30
2023-03-05T05:33:49.991Z,1.10
2023-03-05T05:34:49.246Z,1.30
2023-03-05T05:35:49.286Z,1.80
2023-03-05T05:36:49.217Z,1.00
2023-03-05T05:37:49.251Z,1.30
2023-03-05T05:38:49.203Z,1.40
2023-03-05T05:39:49.204Z,1.20
2023-03-05T05:40:49.200Z,1.10
2023-03-05T05:41:49.217Z,1.40
2023-03-05T05:42:49.174Z,1.40
2023-03-05T05:43:49.205Z,1.00
2023-03-05T05:44:49.146Z,1.30
2023-03-05T05:45:49.200Z,1.10
2023-03-05T05:46:49.160Z,1.50
2023-03-05T05:47:49.094Z,1.10
2023-03-05T05:48:49.157Z,1.40
2023-03-05T05:49:49.094Z,1.40
2023-03-05T05:50:49.139Z,1.00
2023-03-05T05:51:49.075Z,1.40
2023-03-05T05:52:49.051Z,1.10
2023-03-05T05:53:49.058Z,1.30
2023-03-05T05:54:49.040Z,1.30
2023-03-05T05:55:49.014Z,1.20
2023-03-05T05:56:49.028Z,1.40
2023-03-05T05:57:48.990Z,1.20
2023-03-05T05:58:48.979Z,1.30
2023-03-05T05:59:48.987Z,1.40
2023-03-05T06:00:49.018Z,1.50
2023-03-05T06:01:49.043Z,1.50
2023-03-05T06:02:48.988Z,1.30
2023-03-05T06:03:48.908Z,1.30
2023-03-05T06:04:48.918Z,1.10
2023-03-05T06:05:48.919Z,1.50
2023-03-05T06:06:48.917Z,1.60
2023-03-05T06:07:48.890Z,1.80
2023-03-05T06:08:48.847Z,1.70
2023-03-05T06:09:48.865Z,1.30
2023-03-05T06:10:48.848Z,1.50
2023-03-05T06:11:48.826Z,1.10
2023-03-05T06:12:48.907Z,1.10
2023-03-05T06:13:48.801Z,1.10
2023-03-05T06:14:48.798Z,0.80
2023-03-05T06:15:48.791Z,1.30
2023-03-05T06:16:48.778Z,1.10
2023-03-05T06:17:48.805Z,1.40
2023-03-05T06:18:48.770Z,1.20
2023-03-05T06:19:48.766Z,1.00
2023-03-05T06:20:48.771Z,1.00
2023-03-05T06:21:48.712Z,1.40
2023-03-05T06:22:48.708Z,1.40
2023-03-05T06:23:48.710Z,0.90
2023-03-05T06:24:48.688Z,0.90
2023-03-05T06:25:48.724Z,0.80
2023-03-05T06:26:48.703Z,0.90
2023-03-05T06:27:48.655Z,1.10
2023-03-05T06:28:48.635Z,0.80
2023-03-05T06:29:48.629Z,1.00
2023-03-05T06:30:48.699Z,0.90
2023-03-05T06:31:48.658Z,0.70
2023-03-05T06:32:48.597Z,1.00
2023-03-05T06:33:48.574Z,1.00
2023-03-05T06:34:48.555Z,0.90
2023-03-05T06:35:48.618Z,1.20
2023-03-05T06:36:48.583Z,0.80
2023-03-05T06:37:48.545Z,0.80
2023-03-05T06:38:49.141Z,1.00
2023-03-05T06:39:48.496Z,1.40
2023-03-05T06:40:48.498Z,0.80
2023-03-05T06:41:48.507Z,0.90
2023-03-05T06:42:48.497Z,0.80
2023-03-05T06:43:48.475Z,1.20
2023-03-05T06:44:48.524Z,0.90
2023-03-05T06:45:48.473Z,1.10
2023-03-05T06:46:48.473Z,0.90
2023-03-05T06:47:48.416Z,0.90
2023-03-05T06:48:48.406Z,1.00
2023-03-05T06:49:48.400Z,1.00
2023-03-05T06:50:48.366Z,1.30
2023-03-05T06:51:48.397Z,1.30
2023-03-05T06:52:48.359Z,2.90
2023-03-05T06:53:49.499Z,16.20
2023-03-05T06:54:48.359Z,9.10
2023-03-05T06:55:48.339Z,7.50
2023-03-05T06:56:48.365Z,4.60
2023-03-05T06:57:48.321Z,2.80
2023-03-05T06:58:48.286Z,1.90
2023-03-05T06:59:48.269Z,2.10
2023-03-05T07:00:48.274Z,1.50
2023-03-05T07:01:48.250Z,1.10
2023-03-05T07:02:48.344Z,1.10
2023-03-05T07:03:48.239Z,1.00
2023-03-05T07:04:48.221Z,0.80
2023-03-05T07:05:48.251Z,0.80
2023-03-05T07:06:48.220Z,0.90
2023-03-05T07:07:48.202Z,1.10
2023-03-05T07:08:48.171Z,1.10
2023-03-05T07:09:48.212Z,1.00
2023-03-05T07:10:48.213Z,0.90
2023-03-05T07:11:48.140Z,1.10
2023-03-05T07:12:48.120Z,1.20
2023-03-05T07:13:48.142Z,1.10
2023-03-05T07:14:48.147Z,1.10
2023-03-05T07:15:48.129Z,1.10
2023-03-05T07:16:48.079Z,1.00
2023-03-05T07:17:48.075Z,0.90
2023-03-05T07:18:48.044Z,1.10
2023-03-05T07:19:48.110Z,1.20
2023-03-05T07:20:48.033Z,0.80
2023-03-05T07:21:48.028Z,1.10
2023-03-05T07:22:48.048Z,1.40
2023-03-05T07:23:48.022Z,1.10
2023-03-05T07:24:48.049Z,1.20
2023-03-05T07:25:47.958Z,1.30
2023-03-05T07:26:48.996Z,1.00
2023-03-05T07:27:47.933Z,1.20
2023-03-05T07:28:47.939Z,1.40
2023-03-05T07:29:47.985Z,1.00
2023-03-05T07:30:47.942Z,1.30
2023-03-05T07:31:47.950Z,1.50
2023-03-05T07:32:47.896Z,1.30
2023-03-05T07:33:47.922Z,1.20
2023-03-05T07:34:47.884Z,1.00
2023-03-05T07:35:47.888Z,1.30
2023-03-05T07:36:47.878Z,1.40
2023-03-05T07:37:47.834Z,1.40
2023-03-05T07:38:47.816Z,1.50
2023-03-05T07:39:47.816Z,1.40
2023-03-05T07:40:47.798Z,1.40
2023-03-05T07:41:47.831Z,1.30
2023-03-05T07:42:47.811Z,1.80
2023-03-05T07:43:47.779Z,1.40
2023-03-05T07:44:47.747Z,1.40
2023-03-05T07:45:47.782Z,1.00
2023-03-05T07:46:47.761Z,1.20
2023-03-05T07:47:47.732Z,1.50
2023-03-05T07:48:47.733Z,1.40
2023-03-05T07:49:47.702Z,1.40
2023-03-05T07:50:47.699Z,1.20
2023-03-05T07:51:47.698Z,1.50
2023-03-05T07:52:47.652Z,1.40
2023-03-05T07:53:47.647Z,1.30
2023-03-05T07:54:47.627Z,1.70
2023-03-05T07:55:47.643Z,1.50
2023-03-05T07:56:47.627Z,1.70
2023-03-05T07:57:47.619Z,1.50
2023-03-05T07:58:47.580Z,1.80
2023-03-05T07:59:47.577Z,1.40
2023-03-05T08:00:47.622Z,1.40
2023-03-05T08:01:47.562Z,1.50
2023-03-05T08:02:47.576Z,1.50
2023-03-05T08:03:47.597Z,1.60
2023-03-05T08:04:47.527Z,1.50
2023-03-05T08:05:47.527Z,1.50
2023-03-05T08:06:47.544Z,1.70
2023-03-05T08:07:47.485Z,1.30
2023-03-05T08:08:47.486Z,1.70
2023-03-05T08:09:47.465Z,2.00
2023-03-05T08:10:47.477Z,1.70
2023-03-05T08:11:47.465Z,2.00
2023-03-05T08:12:47.424Z,2.10
2023-03-05T08:13:47.410Z,2.00
2023-03-05T08:14:47.396Z,1.80
2023-03-05T08:15:47.434Z,1.90
2023-03-05T08:16:48.512Z,1.70
2023-03-05T08:17:47.430Z,1.60
2023-03-05T08:18:47.379Z,1.80
2023-03-05T08:19:47.332Z,1.50
2023-03-05T08:20:47.340Z,1.30
2023-03-05T08:21:47.356Z,1.90
2023-03-05T08:22:47.337Z,1.50
2023-03-05T08:23:47.293Z,1.60
2023-03-05T08:24:47.328Z,1.70
2023-03-05T08:25:47.275Z,1.50
2023-03-05T08:26:47.317Z,1.80
2023-03-05T08:27:47.256Z,2.10
2023-03-05T08:28:47.266Z,2.00
2023-03-05T08:29:47.268Z,1.50
2023-03-05T08:30:47.207Z,2.80
2023-03-05T08:31:47.212Z,1.80
2023-03-05T08:32:47.244Z,1.60
2023-03-05T08:33:47.204Z,2.50
2023-03-05T08:34:47.199Z,1.90
2023-03-05T08:35:47.232Z,2.70
2023-03-05T08:36:47.146Z,1.90
2023-03-05T08:37:47.183Z,1.90
2023-03-05T08:38:47.107Z,1.60
2023-03-05T08:39:47.096Z,1.40
2023-03-05T08:40:47.087Z,1.30
2023-03-05T08:41:47.093Z,1.50
2023-03-05T08:42:47.141Z,1.60
2023-03-05T08:43:47.065Z,1.50
2023-03-05T08:44:47.058Z,1.20
2023-03-05T08:45:47.058Z,1.90
2023-03-05T08:46:47.048Z,1.60
2023-03-05T08:47:47.041Z,1.60
2023-03-05T08:48:47.013Z,1.50
2023-03-05T08:49:46.980Z,1.30
2023-03-05T08:50:46.999Z,1.60
2023-03-05T08:51:46.974Z,3.00
2023-03-05T08:52:46.980Z,3.90
2023-03-05T08:53:46.989Z,10.40
2023-03-05T08:54:46.922Z,12.60
2023-03-05T08:55:46.961Z,9.90
2023-03-05T08:56:46.917Z,5.00
2023-03-05T08:57:46.922Z,2.80
2023-03-05T08:58:46.868Z,2.20
2023-03-05T08:59:46.886Z,1.70
2023-03-05T09:00:46.850Z,1.40
2023-03-05T09:01:46.951Z,1.50
2023-03-05T09:02:46.931Z,1.50
2023-03-05T09:03:46.820Z,1.30
2023-03-05T09:04:46.849Z,2.00
2023-03-05T09:05:46.848Z,2.10
2023-03-05T09:06:46.794Z,1.60
2023-03-05T09:07:46.762Z,1.30
2023-03-05T09:08:46.790Z,1.40
2023-03-05T09:09:46.746Z,1.20
2023-03-05T09:10:46.750Z,1.40
2023-03-05T09:11:46.742Z,1.30
2023-03-05T09:12:46.735Z,1.90
2023-03-05T09:13:46.726Z,1.90
2023-03-05T09:14:46.698Z,1.60
2023-03-05T09:15:46.664Z,1.50
2023-03-05T09:16:46.737Z,1.90
2023-03-05T09:17:46.664Z,1.50
2023-03-05T09:18:46.700Z,1.50
2023-03-05T09:19:46.638Z,1.40
2023-03-05T09:20:46.614Z,1.60
2023-03-05T09:21:46.597Z,1.60
2023-03-05T09:22:46.599Z,1.30
2023-03-05T09:23:46.609Z,1.80
2023-03-05T09:24:46.623Z,1.40
2023-03-05T09:25:46.565Z,1.40
2023-03-05T09:26:46.548Z,1.50
2023-03-05T09:27:46.544Z,1.30
2023-03-05T09:28:46.558Z,1.20
2023-03-05T09:29:46.536Z,1.50
2023-03-05T09:30:46.515Z,1.50
2023-03-05T09:31:46.508Z,1.50
2023-03-05T09:32:46.595Z,1.50
2023-03-05T09:33:46.481Z,1.50
2023-03-05T09:34:46.452Z,1.50
2023-03-05T09:35:46.519Z,1.20
2023-03-05T09:36:46.417Z,1.50
2023-03-05T09:37:46.417Z,2.00
2023-03-05T09:38:46.461Z,1.70
2023-03-05T09:39:46.386Z,1.40
2023-03-05T09:40:46.370Z,1.30
2023-03-05T09:41:46.378Z,1.50
2023-03-05T09:42:46.353Z,1.40
2023-03-05T09:43:46.383Z,2.10
2023-03-05T09:44:46.361Z,1.70
2023-03-05T09:45:46.363Z,1.40
2023-03-05T09:46:46.330Z,1.60
2023-03-05T09:47:46.344Z,1.50
2023-03-05T09:48:46.300Z,2.10
2023-03-05T09:49:46.292Z,1.60
2023-03-05T09:50:46.253Z,1.50
2023-03-05T09:51:46.239Z,2.00
2023-03-05T09:52:46.249Z,2.70
2023-03-05T09:53:46.241Z,2.50
2023-03-05T09:54:46.200Z,2.20
2023-03-05T09:55:46.243Z,1.60
2023-03-05T09:56:46.195Z,1.50
2023-03-05T09:57:46.255Z,1.40
2023-03-05T09:58:46.192Z,1.80
2023-03-05T09:59:46.187Z,1.50
2023-03-05T10:00:46.169Z,1.50
2023-03-05T10:01:46.141Z,1.60
2023-03-05T10:02:46.166Z,2.10
2023-03-05T10:03:46.122Z,1.70
2023-03-05T10:04:46.120Z,2.40
2023-03-05T10:05:46.100Z,1.80
2023-03-05T10:06:46.064Z,1.50
2023-03-05T10:07:46.074Z,1.30
2023-03-05T10:08:46.047Z,1.50
2023-03-05T10:09:46.087Z,1.30
2023-03-05T10:10:46.049Z,1.60
2023-03-05T10:11:46.024Z,1.60
2023-03-05T10:12:46.062Z,1.60
2023-03-05T10:13:45.989Z,1.40
2023-03-05T10:14:45.968Z,1.40
2023-03-05T10:15:46.020Z,1.80
2023-03-05T10:16:46.097Z,1.80
2023-03-05T10:17:45.934Z,1.30
2023-03-05T10:18:45.947Z,1.40
2023-03-05T10:19:45.919Z,1.60
2023-03-05T10:20:45.936Z,1.60
2023-03-05T10:21:45.928Z,2.50
2023-03-05T10:22:45.881Z,1.80
2023-03-05T10:23:45.860Z,1.60
2023-03-05T10:24:45.859Z,1.70
2023-03-05T10:25:45.909Z,1.70
2023-03-05T10:26:45.867Z,1.70
2023-03-05T10:27:45.823Z,1.40
2023-03-05T10:28:45.820Z,1.50
2023-03-05T10:29:45.863Z,1.50
2023-03-05T10:30:45.791Z,1.60
2023-03-05T10:31:45.833Z,1.40
2023-03-05T10:32:45.830Z,1.10
2023-03-05T10:33:45.761Z,1.50
2023-03-05T10:34:45.748Z,1.90
2023-03-05T10:35:45.786Z,2.40
2023-03-05T10:36:45.762Z,2.40
2023-03-05T10:37:45.786Z,2.10
2023-03-05T10:38:45.682Z,1.90
2023-03-05T10:39:45.684Z,1.50
2023-03-05T10:40:45.671Z,1.60
2023-03-05T10:41:45.687Z,1.80
2023-03-05T10:42:45.679Z,1.90
2023-03-05T10:43:45.656Z,1.50
2023-03-05T10:44:45.638Z,1.60
2023-03-05T10:45:45.656Z,1.70
2023-03-05T10:46:45.639Z,1.40
2023-03-05T10:47:45.618Z,1.30
2023-03-05T10:48:45.613Z,2.10
2023-03-05T10:49:45.572Z,2.40
2023-03-05T10:50:45.557Z,1.80
2023-03-05T10:51:45.551Z,1.50
2023-03-05T10:52:45.515Z,1.60
2023-03-05T10:53:45.615Z,1.40
2023-03-05T10:54:45.539Z,1.40
2023-03-05T10:55:45.490Z,1.50
2023-03-05T10:56:45.495Z,1.40
2023-03-05T10:57:45.475Z,1.20
2023-03-05T10:58:45.481Z,1.20
2023-03-05T10:59:45.449Z,1.40
2023-03-05T11:00:45.470Z,1.40
2023-03-05T11:01:45.561Z,1.70
2023-03-05T11:02:45.471Z,1.80
2023-03-05T11:03:45.434Z,1.10
2023-03-05T11:04:45.394Z,2.00
2023-03-05T11:05:45.413Z,1.30
2023-03-05T11:06:45.374Z,1.30
2023-03-05T11:07:45.407Z,1.10
2023-03-05T11:08:45.328Z,1.30
2023-03-05T11:09:45.369Z,1.50
2023-03-05T11:10:45.309Z,1.10
2023-03-05T11:11:45.328Z,1.40
2023-03-05T11:12:45.301Z,1.20
2023-03-05T11:13:45.298Z,1.30
2023-03-05T11:14:45.260Z,1.30
2023-03-05T11:15:45.284Z,1.30
2023-03-05T11:16:45.224Z,1.00
2023-03-05T11:17:45.238Z,1.10
2023-03-05T11:18:45.214Z,1.10
2023-03-05T11:19:45.215Z,0.90
2023-03-05T11:20:45.195Z,1.20
2023-03-05T11:21:45.194Z,1.00
2023-03-05T11:22:45.203Z,1.10
2023-03-05T11:23:45.165Z,1.30
2023-03-05T11:24:45.179Z,1.40
2023-03-05T11:25:45.176Z,1.20
2023-03-05T11:26:45.121Z,1.40
2023-03-05T11:27:45.096Z,1.20
2023-03-05T11:28:45.125Z,1.60
2023-03-05T11:29:45.090Z,1.50
2023-03-05T11:30:45.164Z,1.30
2023-03-05T11:31:45.071Z,1.20
2023-03-05T11:32:45.075Z,1.50
2023-03-05T11:33:45.058Z,1.40
2023-03-05T11:34:45.032Z,1.20
2023-03-05T11:35:45.056Z,1.30
2023-03-05T11:36:45.060Z,1.20
2023-03-05T11:37:45.002Z,1.30
2023-03-05T11:38:45.004Z,1.40
2023-03-05T11:39:45.021Z,1.20
2023-03-05T11:40:44.974Z,1.30
2023-03-05T11:41:44.959Z,1.10
2023-03-05T11:42:44.968Z,1.70
2023-03-05T11:43:44.933Z,1.40
2023-03-05T11:44:44.929Z,1.20
2023-03-05T11:45:44.901Z,1.30
2023-03-05T11:46:44.914Z,1.90
2023-03-05T11:47:44.929Z,1.60
2023-03-05T11:48:44.865Z,1.50
2023-03-05T11:49:44.863Z,1.30
2023-03-05T11:50:44.859Z,1.30
2023-03-05T11:51:44.852Z,1.50
2023-03-05T11:52:44.883Z,1.60
2023-03-05T11:53:44.815Z,1.40
2023-03-05T11:54:44.813Z,1.60
2023-03-05T11:55:44.826Z,1.70
2023-03-05T11:56:44.804Z,1.40
2023-03-05T11:57:44.779Z,1.40
2023-03-05T11:58:44.791Z,1.20
2023-03-05T11:59:44.754Z,1.30
2023-03-05T12:00:44.763Z,1.80
2023-03-05T12:01:44.725Z,1.00
2023-03-05T12:02:44.779Z,1.10
2023-03-05T12:03:44.806Z,1.20
2023-03-05T12:04:44.694Z,1.70
2023-03-05T12:05:44.698Z,1.40
2023-03-05T12:06:44.751Z,1.60
2023-03-05T12:07:44.661Z,1.20
2023-03-05T12:08:45.090Z,1.40
2023-03-05T12:09:44.657Z,1.20
2023-03-05T12:10:44.626Z,1.20
2023-03-05T12:11:44.754Z,1.00
2023-03-05T12:12:44.721Z,1.30
2023-03-05T12:13:44.654Z,1.30
2023-03-05T12:14:44.777Z,1.20
2023-03-05T12:15:45.083Z,1.70
2023-03-05T12:16:45.122Z,1.80
2023-03-05T12:17:44.675Z,1.40
2023-03-05T12:18:45.253Z,1.20
2023-03-05T12:19:44.994Z,1.10
2023-03-05T12:20:44.516Z,1.50
2023-03-05T12:21:44.608Z,1.40
2023-03-05T12:22:44.607Z,1.60
2023-03-05T12:23:44.548Z,1.60
2023-03-05T12:24:44.501Z,1.10
2023-03-05T12:25:44.438Z,1.10
2023-03-05T12:26:44.448Z,1.10
2023-03-05T12:27:44.756Z,1.60
2023-03-05T12:28:44.401Z,1.40
2023-03-05T12:29:44.436Z,1.40
2023-03-05T12:30:44.794Z,1.70
2023-03-05T12:31:44.470Z,1.50
2023-03-05T12:32:44.400Z,1.50
2023-03-05T12:33:44.348Z,1.10
2023-03-05T12:34:44.333Z,1.40
2023-03-05T12:35:44.413Z,1.40
2023-03-05T12:36:44.316Z,1.60
2023-03-05T12:37:44.297Z,1.40
2023-03-05T12:38:44.286Z,1.60
2023-03-05T12:39:44.291Z,1.60
2023-03-05T12:40:44.285Z,2.30
2023-03-05T12:41:44.428Z,1.70
2023-03-05T12:42:44.233Z,1.30
2023-03-05T12:43:44.219Z,1.40
2023-03-05T12:44:44.202Z,1.30
2023-03-05T12:45:44.233Z,1.00
2023-03-05T12:46:44.320Z,1.70
2023-03-05T12:47:44.209Z,1.40
2023-03-05T12:48:44.204Z,1.50
2023-03-05T12:49:44.181Z,1.10
2023-03-05T12:50:44.199Z,1.20
2023-03-05T12:51:44.106Z,1.60
2023-03-05T12:52:44.105Z,1.20
2023-03-05T12:53:44.099Z,1.30
2023-03-05T12:54:44.111Z,1.20
2023-03-05T12:55:44.076Z,1.20
2023-03-05T12:56:44.115Z,1.00
2023-03-05T12:57:44.066Z,1.20
2023-03-05T12:58:44.033Z,1.20
2023-03-05T12:59:44.054Z,1.40
2023-03-05T13:00:44.045Z,1.60
2023-03-05T13:01:43.998Z,1.70
2023-03-05T13:02:44.041Z,1.30
2023-03-05T13:03:44.018Z,1.90
2023-03-05T13:04:44.002Z,1.40
2023-03-05T13:05:43.945Z,1.50
2023-03-05T13:06:43.938Z,1.40
2023-03-05T13:07:43.905Z,1.50
2023-03-05T13:08:43.947Z,3.00
2023-03-05T13:09:43.943Z,1.30
2023-03-05T13:10:43.891Z,1.40
2023-03-05T13:11:43.909Z,1.30
2023-03-05T13:12:43.891Z,1.50
2023-03-05T13:13:43.835Z,1.20
2023-03-05T13:14:43.841Z,1.20
2023-03-05T13:15:43.887Z,1.30
2023-03-05T13:16:43.907Z,1.30
2023-03-05T13:17:43.812Z,1.30
2023-03-05T13:18:43.862Z,1.20